Time;durP1;ratioP1;P1;durP2;ratioP2;P2;SDS_P1;SDS_P2;PMS_P1;PMS_P2;Temp;Humidity;BMP_temperature;BMP_pressure;BME280_temperature;BME280_humidity;BME280_pressure;Samples;Min_cycle;Max_cycle;Signal;HPM_P1;HPM_P2
2024/02/25 00:01:33;;;;;;;0.70;0.30;;;11.70;99.90;;;12.20;53.21;99810.53;6117579;22;101986;-38
2024/02/25 00:04:05;;;;;;;1.80;0.50;;;11.80;99.90;;;12.39;52.83;99796.28;6113416;22;105838;-37
2024/02/25 00:06:31;;;;;;;2.77;0.50;;;12.00;99.90;;;12.31;51.34;99793.22;6045605;22;98174;-37
2024/02/25 00:08:59;;;;;;;0.70;0.50;;;11.90;99.90;;;12.17;51.83;99781.63;6100543;22;97511;-38
2024/02/25 00:11:30;;;;;;;0.40;0.23;;;11.80;99.90;;;12.13;52.71;99790.66;6085595;22;103716;-38
2024/02/25 00:14:08;;;;;;;0.83;0.57;;;11.70;99.90;;;11.88;48.39;99791.16;5978580;22;97510;-33
2024/02/25 00:16:36;;;;;;;0.47;0.33;;;11.70;99.90;;;11.88;49.89;99785.03;6008810;22;98900;-38
2024/02/25 00:19:03;;;;;;;0.70;0.47;;;11.50;99.90;;;11.92;49.97;99791.84;5960296;22;100891;-35
2024/02/25 00:21:37;;;;;;;1.50;0.60;;;11.60;99.90;;;12.07;52.75;99785.72;5966196;22;100618;-36
2024/02/25 00:24:22;;;;;;;1.37;0.43;;;11.70;99.90;;;12.17;51.97;99792.19;5915752;22;101552;-37
2024/02/25 00:26:52;;;;;;;0.93;0.60;;;11.80;99.90;;;12.18;49.11;99796.56;5878591;22;98266;-35
2024/02/25 00:29:24;;;;;;;0.57;0.40;;;11.80;99.90;;;12.08;52.61;99782.13;5967527;22;97974;-38
2024/02/25 00:31:53;;;;;;;0.40;0.30;;;11.70;99.90;;;12.05;48.90;99776.16;5909403;22;103263;-37
2024/02/25 00:34:19;;;;;;;0.47;0.33;;;11.70;99.90;;;12.10;53.69;99774.97;5964951;22;101576;-39
2024/02/25 00:36:48;;;;;;;1.83;0.50;;;11.70;99.90;;;12.02;48.40;99793.06;6097103;22;97861;-36
2024/02/25 00:39:17;;;;;;;1.50;0.40;;;11.80;99.90;;;11.97;48.75;99789.78;6115457;22;97800;-37
2024/02/25 00:41:48;;;;;;;0.60;0.40;;;11.70;99.90;;;12.13;50.38;99784.50;6108889;22;97753;-36
2024/02/25 00:44:13;;;;;;;0.50;0.40;;;11.80;99.90;;;12.32;51.32;99784.34;6040279;22;103447;-41
2024/02/25 00:46:39;;;;;;;0.60;0.40;;;11.90;99.90;;;12.39;53.92;99780.41;6054502;22;98020;-52
2024/02/25 00:49:05;;;;;;;1.77;0.50;;;12.00;99.90;;;12.51;49.52;99775.28;6105771;22;98102;-38
2024/02/25 00:51:31;;;;;;;0.83;0.40;;;12.20;99.90;;;12.47;51.63;99772.91;6048967;22;103568;-42
2024/02/25 00:53:59;;;;;;;0.57;0.37;;;12.10;99.90;;;12.39;50.80;99785.69;6104164;22;101749;-39
2024/02/25 00:56:25;;;;;;;0.73;0.30;;;12.10;99.90;;;12.46;53.23;99781.78;6132739;22;97367;-40
2024/02/25 00:58:53;;;;;;;0.67;0.33;;;12.10;99.90;;;12.28;49.81;99777.50;6131522;22;98169;-38
2024/02/25 01:01:22;;;;;;;2.53;0.43;;;12.00;99.90;;;12.05;47.96;99777.03;6069321;22;102005;-38
2024/02/25 01:03:56;;;;;;;2.23;0.53;;;11.80;99.90;;;11.90;47.86;99772.59;6118945;22;98218;-36
2024/02/25 01:06:22;;;;;;;1.00;0.50;;;11.70;99.90;;;11.91;48.93;99774.28;6022570;22;97717;-37
2024/02/25 01:08:48;;;;;;;1.77;0.40;;;11.60;99.90;;;11.76;48.74;99775.09;6057597;22;97582;-38
2024/02/25 01:11:13;;;;;;;3.30;0.63;;;11.50;99.90;;;12.01;49.78;99770.22;6034884;22;97849;-38
2024/02/25 01:13:42;;;;;;;0.60;0.50;;;11.70;99.90;;;11.87;48.67;99772.75;6075875;22;97558;-34
2024/02/25 01:16:08;;;;;;;0.83;0.40;;;11.70;99.90;;;12.04;53.42;99764.75;6018993;22;97961;-38
2024/02/25 01:18:34;;;;;;;1.23;0.40;;;11.70;99.90;;;12.03;48.28;99773.63;6071208;22;104427;-37
2024/02/25 01:21:02;;;;;;;0.23;0.20;;;11.80;99.90;;;12.39;52.96;99759.25;6104605;22;99827;-38
2024/02/25 01:23:31;;;;;;;0.73;0.40;;;12.10;99.90;;;12.54;49.52;99753.06;6074145;22;102379;-37
2024/02/25 01:25:57;;;;;;;0.50;0.33;;;12.30;99.90;;;12.32;47.82;99757.91;6064642;22;99413;-36
2024/02/25 01:28:23;;;;;;;1.20;0.53;;;12.10;99.90;;;12.17;47.88;99760.47;6077726;22;103002;-38
2024/02/25 01:30:49;;;;;;;0.70;0.57;;;12.00;99.90;;;11.91;47.62;99769.00;6114210;22;98208;-38
2024/02/25 01:33:15;;;;;;;0.50;0.50;;;11.70;99.90;;;11.99;48.34;99766.78;6105872;22;98746;-38
2024/02/25 01:35:44;;;;;;;0.40;0.40;;;11.70;99.90;;;11.96;52.62;99763.44;6053711;22;98117;-46
2024/02/25 01:38:10;;;;;;;0.80;0.60;;;11.60;99.90;;;11.85;49.43;99769.31;5953096;22;104018;-36
2024/02/25 01:40:36;;;;;;;0.77;0.40;;;11.60;99.90;;;11.74;48.85;99761.13;6003259;22;104364;-35
2024/02/25 01:43:16;;;;;;;0.53;0.40;;;11.50;99.90;;;11.75;49.11;99762.81;5989696;22;105717;-39
2024/02/25 01:45:42;;;;;;;1.27;0.60;;;11.40;99.90;;;11.62;48.96;99762.63;6122957;22;97701;-36
2024/02/25 01:48:08;;;;;;;0.43;0.40;;;11.40;99.90;;;11.60;49.96;99760.06;6131856;22;97401;-39
2024/02/25 01:50:36;;;;;;;2.20;0.57;;;11.30;99.90;;;11.62;50.97;99760.00;6160061;22;97712;-38
2024/02/25 01:53:02;;;;;;;0.93;0.60;;;11.30;99.90;;;11.57;49.00;99760.25;6167805;22;99801;-35
2024/02/25 01:55:34;;;;;;;1.00;0.37;;;11.30;99.90;;;11.72;48.96;99763.84;6147972;22;97775;-38
2024/02/25 01:58:05;;;;;;;0.50;0.20;;;11.50;99.90;;;11.78;49.23;99762.66;6192269;22;97375;-35
2024/02/25 02:00:31;;;;;;;1.43;0.40;;;11.50;99.90;;;11.61;52.96;99761.78;6170459;22;109467;-35
2024/02/25 02:03:00;;;;;;;0.53;0.20;;;11.40;99.90;;;11.47;48.80;99763.47;6163976;22;104944;-39
2024/02/25 02:05:26;;;;;;;1.10;0.60;;;11.30;99.90;;;11.53;52.18;99758.69;6177323;22;106861;-36
2024/02/25 02:07:56;;;;;;;1.13;0.30;;;11.30;99.90;;;11.53;49.63;99758.69;6194488;22;98266;-34
2024/02/25 02:10:21;;;;;;;0.70;0.43;;;11.40;99.90;;;11.67;53.70;99759.72;6176961;22;103576;-36
2024/02/25 02:12:48;;;;;;;1.13;0.67;;;11.30;99.90;;;11.47;49.85;99761.66;6158007;22;97592;-36
2024/02/25 02:15:15;;;;;;;0.53;0.30;;;11.30;99.90;;;11.42;49.58;99755.75;6086047;22;97502;-36
2024/02/25 02:17:43;;;;;;;0.47;0.30;;;11.20;99.90;;;11.48;55.35;99759.88;6115696;22;104136;-36
2024/02/25 02:20:20;;;;;;;0.40;0.40;;;11.20;99.90;;;11.44;49.70;99758.34;6155378;22;99588;-36
2024/02/25 02:22:51;;;;;;;0.40;0.40;;;11.20;99.90;;;11.34;49.33;99752.69;6140530;22;102400;-35
2024/02/25 02:25:17;;;;;;;0.53;0.33;;;11.10;99.90;;;11.45;51.22;99749.50;6146283;22;97317;-36
2024/02/25 02:27:44;;;;;;;0.67;0.40;;;11.20;99.90;;;11.33;49.87;99757.13;6171352;22;97363;-44
2024/02/25 02:30:11;;;;;;;0.70;0.30;;;11.20;99.90;;;11.45;51.90;99755.63;6136973;22;102720;-38
2024/02/25 02:32:43;;;;;;;0.70;0.40;;;11.20;99.90;;;11.38;50.10;99759.50;6194709;22;103092;-36
2024/02/25 02:35:12;;;;;;;0.97;0.50;;;11.20;99.90;;;11.36;52.92;99745.53;6182812;22;97636;-39
2024/02/25 02:37:37;;;;;;;0.50;0.43;;;11.20;99.90;;;11.30;50.52;99751.16;6151349;22;116875;-36
2024/02/25 02:40:04;;;;;;;0.77;0.43;;;11.20;99.90;;;11.15;49.43;99759.88;6167037;22;98571;-36
2024/02/25 02:42:32;;;;;;;1.57;0.60;;;11.00;99.90;;;11.18;51.13;99751.78;6171517;22;97968;-35
2024/02/25 02:45:00;;;;;;;0.50;0.27;;;11.00;99.90;;;11.29;51.50;99765.28;6156181;22;98142;-34
2024/02/25 02:47:26;;;;;;;0.80;0.57;;;11.00;99.90;;;11.11;49.62;99760.94;6180938;22;97557;-35
2024/02/25 02:49:57;;;;;;;0.70;0.40;;;11.00;99.90;;;11.23;52.73;99760.31;6140926;22;106324;-35
2024/02/25 02:52:23;;;;;;;0.60;0.40;;;10.90;99.90;;;11.05;50.80;99761.28;6148244;22;102795;-36
2024/02/25 02:54:52;;;;;;;0.60;0.40;;;10.90;99.90;;;11.10;50.75;99760.09;6178980;22;112482;-44
2024/02/25 02:57:20;;;;;;;0.30;0.20;;;10.90;99.90;;;11.33;55.48;99756.25;6127314;22;97368;-34
2024/02/25 02:59:47;;;;;;;0.20;0.20;;;11.00;99.90;;;11.32;52.46;99754.56;6169804;22;98756;-36
2024/02/25 03:02:15;;;;;;;1.23;0.50;;;11.10;99.90;;;11.23;49.98;99755.03;6146730;22;103620;-37
2024/02/25 03:04:41;;;;;;;1.10;0.50;;;11.10;99.90;;;11.16;50.33;99764.22;6144015;22;107103;-36
2024/02/25 03:07:06;;;;;;;1.23;0.40;;;11.00;99.90;;;11.18;53.27;99757.94;6088036;22;97484;-35
2024/02/25 03:09:32;;;;;;;0.63;0.40;;;10.90;99.90;;;11.11;50.87;99760.94;6120232;22;101307;-35
2024/02/25 03:12:01;;;;;;;1.10;0.50;;;11.00;99.90;;;11.42;52.20;99755.75;6113500;22;106629;-38
2024/02/25 03:14:26;;;;;;;0.67;0.43;;;11.10;99.90;;;11.23;50.41;99749.75;6097689;22;97548;-36
2024/02/25 03:16:52;;;;;;;0.80;0.70;;;11.10;99.90;;;11.28;50.11;99747.72;6147122;22;97436;-37
2024/02/25 03:19:18;;;;;;;0.87;0.40;;;11.10;99.90;;;11.18;50.86;99749.16;6162798;22;121513;-39
2024/02/25 03:21:50;;;;;;;0.60;0.40;;;11.00;99.90;;;11.18;52.12;99739.44;6177042;22;120624;-39
2024/02/25 03:24:20;;;;;;;1.87;0.50;;;10.90;99.90;;;11.21;52.70;99746.34;6167965;22;104739;-37
2024/02/25 03:26:47;;;;;;;1.27;0.67;;;10.90;99.90;;;11.27;54.23;99746.88;6128668;22;97955;-37
2024/02/25 03:29:13;;;;;;;0.67;0.30;;;11.00;99.90;;;11.26;51.44;99746.94;6161933;22;97889;-37
2024/02/25 03:31:39;;;;;;;1.27;0.73;;;11.00;99.90;;;11.19;51.44;99748.22;6171482;22;104812;-35
2024/02/25 03:34:05;;;;;;;3.17;0.60;;;11.00;99.90;;;11.26;50.87;99752.22;6169262;22;97422;-38
2024/02/25 03:36:31;;;;;;;1.03;0.60;;;11.10;99.90;;;11.24;51.10;99751.47;6164351;22;97582;-38
2024/02/25 03:38:56;;;;;;;0.50;0.33;;;11.00;99.90;;;11.15;53.37;99754.59;6151928;22;98375;-34
2024/02/25 03:41:22;;;;;;;1.57;0.43;;;11.00;99.90;;;11.11;50.42;99760.94;6127907;22;97231;-38
2024/02/25 03:43:48;;;;;;;0.40;0.30;;;10.90;99.90;;;11.16;53.66;99758.94;6167446;22;97229;-36
2024/02/25 03:46:14;;;;;;;0.30;0.30;;;10.90;99.90;;;11.16;51.70;99759.78;6135664;22;98238;-37
2024/02/25 03:48:40;;;;;;;1.37;0.60;;;10.80;99.90;;;11.12;51.21;99762.66;6134431;22;101891;-38
2024/02/25 03:51:09;;;;;;;1.27;0.40;;;10.90;99.90;;;11.20;52.09;99749.91;6184020;22;97930;-37
2024/02/25 03:53:34;;;;;;;0.20;0.20;;;10.90;99.90;;;11.22;51.22;99753.31;6183351;22;99703;-35
2024/02/25 03:56:00;;;;;;;0.83;0.43;;;11.00;99.90;;;11.21;53.11;99757.75;6183368;22;101745;-38
2024/02/25 03:58:26;;;;;;;0.30;0.30;;;11.00;99.90;;;11.18;53.60;99746.50;6166224;22;103626;-40
2024/02/25 04:00:52;;;;;;;0.20;0.20;;;11.00;99.90;;;11.24;52.52;99744.38;6105843;22;97909;-33
2024/02/25 04:03:17;;;;;;;0.43;0.27;;;11.00;99.90;;;11.21;50.84;99747.19;6180505;22;97213;-36
2024/02/25 04:05:43;;;;;;;0.77;0.50;;;11.00;99.90;;;11.12;50.60;99746.81;6148265;22;107967;-35
2024/02/25 04:08:09;;;;;;;0.80;0.27;;;11.00;99.90;;;11.16;50.85;99743.09;6134039;22;99380;-38
2024/02/25 04:10:35;;;;;;;0.63;0.30;;;11.00;99.90;;;11.38;51.26;99738.38;6180491;22;102914;-39
2024/02/25 04:13:00;;;;;;;1.27;0.60;;;11.20;99.90;;;11.18;50.86;99741.22;6151136;22;106920;-37
2024/02/25 04:15:31;;;;;;;0.80;0.30;;;11.10;99.90;;;11.16;50.07;99737.81;6097238;22;99546;-38
2024/02/25 04:17:56;;;;;;;0.40;0.30;;;11.00;99.90;;;11.19;50.88;99732.38;6137246;22;99860;-37
2024/02/25 04:20:26;;;;;;;0.30;0.30;;;11.10;99.90;;;11.18;51.27;99734.16;6157762;22;120413;-37
2024/02/25 04:22:52;;;;;;;0.33;0.30;;;11.00;99.90;;;11.22;51.89;99737.50;6167328;22;97272;-36
2024/02/25 04:25:18;;;;;;;0.30;0.30;;;11.00;99.90;;;11.22;52.30;99748.06;6126880;22;97696;-34
2024/02/25 04:27:44;;;;;;;0.90;0.50;;;11.00;99.90;;;11.07;52.01;99733.03;6116702;22;115253;-38
2024/02/25 04:30:14;;;;;;;0.30;0.27;;;10.90;99.90;;;11.06;52.23;99731.31;6142194;22;127532;-37
2024/02/25 04:32:47;;;;;;;0.73;0.30;;;10.90;99.90;;;11.18;55.16;99731.53;6193698;22;98161;-38
2024/02/25 04:35:13;;;;;;;0.70;0.37;;;10.90;99.90;;;11.08;52.41;99734.72;6146010;22;97458;-36
2024/02/25 04:37:39;;;;;;;0.47;0.30;;;10.90;99.90;;;11.05;53.40;99740.16;6138909;22;97852;-38
2024/02/25 04:40:08;;;;;;;1.20;0.40;;;10.90;99.90;;;11.07;55.14;99735.66;6137796;22;114697;-36
2024/02/25 04:42:34;;;;;;;0.43;0.23;;;10.90;99.90;;;10.96;53.87;99738.84;6175333;22;97655;-35
2024/02/25 04:44:59;;;;;;;0.30;0.30;;;10.80;99.90;;;10.92;52.49;99748.72;6135407;22;105478;-35
2024/02/25 04:47:25;;;;;;;0.60;0.30;;;10.80;99.90;;;11.02;55.70;99751.75;6132230;22;128028;-36
2024/02/25 04:49:51;;;;;;;0.20;0.20;;;10.80;99.90;;;11.02;53.52;99746.47;6165837;22;101350;-38
2024/02/25 04:52:17;;;;;;;0.57;0.17;;;10.80;99.90;;;10.93;54.01;99741.66;6147077;22;97189;-38
2024/02/25 04:54:43;;;;;;;0.77;0.30;;;10.80;99.90;;;10.85;54.29;99746.44;6166039;22;105697;-34
2024/02/25 04:57:08;;;;;;;0.50;0.27;;;10.70;99.90;;;10.85;54.83;99747.34;6179027;22;100170;-37
2024/02/25 04:59:34;;;;;;;0.57;0.20;;;10.70;99.90;;;10.84;54.68;99750.03;6123061;22;119884;-38
2024/02/25 05:02:00;;;;;;;0.30;0.20;;;10.70;99.90;;;10.83;54.45;99757.09;6189098;22;111173;-35
2024/02/25 05:04:26;;;;;;;1.63;0.27;;;10.70;99.90;;;10.81;54.68;99748.41;6147476;22;99630;-41
2024/02/25 05:06:51;;;;;;;0.27;0.20;;;10.60;99.90;;;10.77;54.65;99752.13;6131605;22;105295;-37
2024/02/25 05:09:21;;;;;;;1.03;0.60;;;10.60;99.90;;;10.69;55.16;99749.00;6107746;22;124972;-37
2024/02/25 05:11:47;;;;;;;0.37;0.20;;;10.50;99.90;;;10.68;56.00;99750.78;6118667;22;98574;-34
2024/02/25 05:14:16;;;;;;;1.33;0.40;;;10.50;99.90;;;10.76;55.93;99750.44;6096837;22;97474;-38
2024/02/25 05:16:41;;;;;;;0.50;0.23;;;10.60;99.90;;;10.81;56.54;99737.84;6128781;22;104125;-37
2024/02/25 05:19:07;;;;;;;1.17;0.40;;;10.60;99.90;;;10.88;58.23;99744.53;6108324;22;98905;-41
2024/02/25 05:21:33;;;;;;;0.40;0.30;;;10.60;99.90;;;10.82;56.58;99750.09;6150587;22;104655;-36
2024/02/25 05:24:02;;;;;;;0.70;0.40;;;10.60;99.90;;;10.76;57.13;99755.69;6194242;22;97413;-37
2024/02/25 05:26:30;;;;;;;0.30;0.20;;;10.60;99.90;;;10.77;57.79;99757.41;6107398;22;98698;-36
2024/02/25 05:28:56;;;;;;;0.40;0.30;;;10.50;99.90;;;10.69;57.47;99754.28;6060810;22;97863;-35
2024/02/25 05:31:22;;;;;;;0.83;0.50;;;10.50;99.90;;;10.66;56.97;99754.44;6082839;22;104951;-35
2024/02/25 05:33:47;;;;;;;0.63;0.37;;;10.50;99.90;;;10.68;57.25;99747.31;6145051;22;97611;-38
2024/02/25 05:36:17;;;;;;;0.80;0.33;;;10.40;99.90;;;10.63;58.11;99754.59;6180700;22;119565;-38
2024/02/25 05:38:43;;;;;;;0.77;0.50;;;10.40;99.90;;;10.60;57.91;99754.78;6161379;22;101525;-36
2024/02/25 05:41:12;;;;;;;0.27;0.27;;;10.40;99.90;;;10.55;56.79;99754.13;6132947;22;101201;-36
2024/02/25 05:43:38;;;;;;;0.23;0.20;;;10.30;99.90;;;10.48;58.66;99760.66;6131397;22;99740;-35
2024/02/25 05:46:04;;;;;;;0.73;0.53;;;10.30;99.90;;;10.49;59.03;99757.06;6074134;22;99969;-46
2024/02/25 05:48:29;;;;;;;0.40;0.30;;;10.30;99.90;;;10.47;59.17;99765.06;6094211;22;118922;-38
2024/02/25 05:50:55;;;;;;;1.00;0.30;;;10.30;99.90;;;10.49;59.33;99765.84;6165570;22;106966;-35
2024/02/25 05:53:21;;;;;;;1.67;0.33;;;10.30;99.90;;;10.47;59.81;99764.22;6159445;22;97453;-37
2024/02/25 05:55:47;;;;;;;0.20;0.17;;;10.30;99.90;;;10.36;58.88;99756.81;6108886;22;98606;-38
2024/02/25 05:58:13;;;;;;;0.60;0.40;;;10.20;99.90;;;10.35;58.07;99761.25;6097536;22;99486;-35
2024/02/25 06:00:42;;;;;;;0.50;0.40;;;10.20;99.90;;;10.33;59.14;99767.53;6139304;22;97424;-36
2024/02/25 06:03:15;;;;;;;1.13;0.20;;;10.20;99.90;;;10.27;57.91;99768.69;6093164;22;97711;-36
2024/02/25 06:05:41;;;;;;;0.20;0.20;;;10.20;99.90;;;10.33;58.50;99773.66;6085541;22;105780;-38
2024/02/25 06:08:17;;;;;;;1.27;0.40;;;10.10;99.90;;;10.26;58.48;99774.00;6101460;22;100918;-35
2024/02/25 06:10:42;;;;;;;0.60;0.37;;;10.10;99.90;;;10.22;59.73;99781.22;6155472;22;101383;-36
2024/02/25 06:13:11;;;;;;;0.57;0.30;;;10.10;99.90;;;10.30;60.87;99773.81;6133993;22;112114;-36
2024/02/25 06:15:49;;;;;;;0.40;0.20;;;10.10;99.90;;;10.21;59.34;99763.69;6151638;22;118813;-35
2024/02/25 06:18:15;;;;;;;0.47;0.47;;;10.10;99.90;;;10.21;60.63;99776.88;6176543;22;105219;-40
2024/02/25 06:20:41;;;;;;;0.97;0.60;;;10.10;99.90;;;10.14;60.92;99772.81;6114373;22;97875;-36
2024/02/25 06:23:07;;;;;;;0.80;0.50;;;10.00;99.90;;;10.15;60.55;99774.50;6144888;22;100499;-41
2024/02/25 06:25:33;;;;;;;1.20;0.50;;;10.00;99.90;;;10.17;61.00;99772.66;6172157;22;98963;-43
2024/02/25 06:27:58;;;;;;;1.83;0.60;;;10.00;99.90;;;10.13;60.42;99771.94;6130514;22;99905;-38
2024/02/25 06:30:29;;;;;;;0.57;0.40;;;10.00;99.90;;;10.10;61.08;99777.34;6165413;22;105026;-33
2024/02/25 06:32:55;;;;;;;1.13;0.53;;;10.00;99.90;;;10.11;61.16;99775.56;6149681;22;97673;-40
2024/02/25 06:35:20;;;;;;;0.73;0.60;;;10.00;99.90;;;10.21;61.94;99778.63;6147377;22;98003;-38
2024/02/25 06:37:49;;;;;;;0.83;0.30;;;10.00;99.90;;;10.22;61.80;99775.94;6146636;22;104613;-37
2024/02/25 06:40:20;;;;;;;0.57;0.40;;;10.10;99.90;;;10.27;60.15;99773.97;6109499;22;105064;-37
2024/02/25 06:42:46;;;;;;;1.40;0.60;;;10.10;99.90;;;10.33;60.72;99772.78;6092679;22;97515;-35
2024/02/25 06:45:12;;;;;;;0.60;0.40;;;10.10;99.90;;;10.39;60.69;99778.59;6150485;22;99341;-36
2024/02/25 06:47:40;;;;;;;0.80;0.50;;;10.20;99.90;;;10.52;59.64;99783.28;6166027;22;98409;-36
2024/02/25 06:50:07;;;;;;;0.50;0.30;;;10.30;99.90;;;10.50;59.38;99772.81;6133286;22;97286;-37
2024/02/25 06:52:32;;;;;;;0.97;0.50;;;10.30;99.90;;;10.71;60.45;99773.56;6134325;22;97509;-34
2024/02/25 06:55:00;;;;;;;0.53;0.40;;;10.30;99.90;;;10.64;57.83;99787.97;5997754;22;100319;-35
2024/02/25 06:57:26;;;;;;;2.10;0.50;;;10.40;99.90;;;10.76;58.27;99779.44;5988576;22;100954;-35
2024/02/25 06:59:52;;;;;;;3.03;0.60;;;10.50;99.90;;;10.66;58.05;99780.81;6119840;22;98639;-37
2024/02/25 07:02:17;;;;;;;0.40;0.40;;;10.50;99.90;;;10.82;58.22;99778.28;6125978;22;97519;-33
2024/02/25 07:04:45;;;;;;;0.20;0.20;;;10.50;99.90;;;10.90;59.48;99787.50;6071937;22;101177;-34
2024/02/25 07:07:11;;;;;;;0.83;0.30;;;10.60;99.90;;;10.99;58.99;99784.41;6181055;22;101664;-38
2024/02/25 07:09:39;;;;;;;0.63;0.47;;;10.70;99.90;;;10.82;57.16;99794.09;6163777;22;98213;-37
2024/02/25 07:12:07;;;;;;;0.57;0.37;;;10.60;99.90;;;10.72;57.02;99783.19;6132339;22;97899;-34
2024/02/25 07:14:35;;;;;;;0.73;0.20;;;10.50;99.90;;;10.87;56.97;99790.31;6178866;22;97946;-37
2024/02/25 07:17:01;;;;;;;1.23;0.40;;;10.60;99.90;;;10.93;58.38;99800.53;6135763;22;110931;-36
2024/02/25 07:19:31;;;;;;;0.87;0.60;;;10.60;99.90;;;10.91;57.41;99791.84;6091163;22;106191;-37
2024/02/25 07:21:57;;;;;;;3.20;0.53;;;10.70;99.90;;;10.92;57.48;99793.56;6047759;22;97600;-38
2024/02/25 07:24:26;;;;;;;0.20;0.20;;;10.70;99.90;;;10.95;56.30;99793.41;6146018;22;116976;-36
2024/02/25 07:26:55;;;;;;;0.60;0.40;;;10.70;99.90;;;10.80;57.94;99799.44;6175673;22;121349;-37
2024/02/25 07:29:23;;;;;;;0.50;0.40;;;10.60;99.90;;;10.82;57.33;99802.88;6165453;22;97471;-34
2024/02/25 07:31:54;;;;;;;0.50;0.43;;;10.60;99.90;;;10.90;59.20;99800.72;6141957;22;104494;-35
2024/02/25 07:34:20;;;;;;;1.57;0.73;;;10.60;99.90;;;10.95;56.93;99809.22;6064173;22;103619;-36
2024/02/25 07:36:46;;;;;;;1.13;0.40;;;10.70;99.90;;;10.98;56.42;99802.94;6141032;22;96947;-38
2024/02/25 07:39:18;;;;;;;0.60;0.30;;;10.80;99.90;;;10.94;57.35;99812.81;6175836;22;106237;-38
2024/02/25 07:41:44;;;;;;;1.07;0.80;;;10.70;99.90;;;10.92;57.47;99803.25;6180121;22;97353;-35
2024/02/25 07:44:11;;;;;;;2.87;0.67;;;10.70;99.90;;;10.94;57.15;99804.88;6090680;22;98304;-37
2024/02/25 07:46:37;;;;;;;0.83;0.40;;;10.80;99.90;;;10.96;57.13;99813.56;6058226;22;105442;-35
2024/02/25 07:49:03;;;;;;;1.03;0.40;;;10.80;99.90;;;11.02;57.13;99815.94;6147878;22;97549;-43
2024/02/25 07:51:36;;;;;;;0.70;0.47;;;10.80;99.90;;;10.93;56.91;99815.53;6155071;22;97822;-38
2024/02/25 07:54:03;;;;;;;0.80;0.50;;;10.80;99.90;;;10.94;58.03;99812.81;6096137;22;103686;-44
2024/02/25 07:56:29;;;;;;;0.97;0.40;;;10.80;99.90;;;11.01;58.95;99811.56;6090658;22;99003;-36
2024/02/25 07:58:55;;;;;;;1.03;0.53;;;10.80;99.90;;;10.96;56.97;99810.09;6145378;22;101609;-45
2024/02/25 08:01:20;;;;;;;3.47;0.63;;;10.70;99.90;;;10.90;56.94;99815.69;6123784;22;97622;-39
2024/02/25 08:03:51;;;;;;;1.03;0.50;;;10.70;99.90;;;11.15;58.30;99815.31;6085144;22;117657;-35
2024/02/25 08:06:27;;;;;;;1.17;0.50;;;10.80;99.90;;;11.06;57.22;99818.41;6132455;22;102666;-35
2024/02/25 08:09:02;;;;;;;0.63;0.40;;;10.90;99.90;;;11.31;58.18;99826.78;6164401;22;97521;-34
2024/02/25 08:11:33;;;;;;;1.10;0.53;;;11.00;99.90;;;11.30;56.34;99825.06;6096105;22;97390;-36
2024/02/25 08:14:01;;;;;;;0.50;0.40;;;11.10;99.90;;;11.48;57.73;99825.91;6131208;22;115340;-35
2024/02/25 08:16:31;;;;;;;0.80;0.30;;;11.20;99.90;;;11.43;55.86;99826.16;6123193;22;98129;-41
2024/02/25 08:18:56;;;;;;;0.47;0.30;;;11.20;99.90;;;11.43;56.80;99818.22;6114741;22;97437;-38
2024/02/25 08:21:28;;;;;;;0.47;0.40;;;11.20;99.90;;;11.47;56.59;99822.41;6145633;22;112418;-36
2024/02/25 08:23:53;;;;;;;2.33;0.57;;;11.20;99.90;;;11.44;56.03;99825.22;6114946;22;102491;-38
2024/02/25 08:26:22;;;;;;;0.80;0.40;;;11.20;99.90;;;11.37;55.81;99826.44;6137811;22;97598;-38
2024/02/25 08:28:48;;;;;;;0.40;0.33;;;11.20;99.90;;;11.27;55.99;99830.50;6136749;22;97454;-36
2024/02/25 08:31:22;;;;;;;0.80;0.50;;;11.10;99.90;;;11.31;56.08;99826.78;6165059;22;97486;-39
2024/02/25 08:33:51;;;;;;;1.33;0.90;;;11.10;99.90;;;11.31;56.87;99832.06;6166772;22;101861;-37
2024/02/25 08:36:17;;;;;;;1.37;0.50;;;11.10;99.90;;;11.24;57.02;99828.00;6148655;22;105038;-38
2024/02/25 08:38:47;;;;;;;0.90;0.40;;;11.10;99.90;;;11.16;56.46;99820.50;6110696;22;98083;-40
2024/02/25 08:41:13;;;;;;;2.20;0.53;;;11.00;99.90;;;11.08;56.23;99832.38;6169524;22;97834;-38
2024/02/25 08:43:41;;;;;;;0.77;0.50;;;11.00;99.90;;;11.07;56.60;99834.16;6161561;22;125107;-35
2024/02/25 08:46:12;;;;;;;3.10;1.00;;;11.00;99.90;;;11.10;57.08;99827.88;6161040;22;103032;-36
2024/02/25 08:48:38;;;;;;;0.97;0.63;;;11.00;99.90;;;11.05;56.88;99835.16;6161242;22;97485;-36
2024/02/25 08:51:04;;;;;;;0.73;0.50;;;11.00;99.90;;;11.08;57.90;99832.38;6113966;22;111279;-38
2024/02/25 08:53:30;;;;;;;0.97;0.60;;;11.00;99.90;;;11.20;58.52;99837.03;6116879;22;97845;-36
2024/02/25 08:55:58;;;;;;;1.17;0.57;;;11.10;99.90;;;11.14;56.18;99834.69;6128132;22;104532;-37
2024/02/25 08:58:23;;;;;;;0.93;0.40;;;11.10;99.90;;;11.13;56.13;99841.75;6153772;22;97874;-35
2024/02/25 09:00:52;;;;;;;1.17;0.43;;;11.10;99.90;;;11.09;54.91;99836.72;6195524;22;100535;-38
2024/02/25 09:03:18;;;;;;;0.10;0.10;;;11.10;99.90;;;11.15;54.76;99832.00;6144595;22;117668;-38
2024/02/25 09:05:44;;;;;;;0.57;0.20;;;11.20;99.90;;;11.14;55.21;99834.69;6160478;22;104405;-34
2024/02/25 09:08:15;;;;;;;2.03;0.20;;;11.20;99.90;;;11.10;54.01;99827.88;6163042;22;98136;-37
2024/02/25 09:10:41;;;;;;;0.60;0.37;;;11.10;99.90;;;11.21;53.96;99836.09;6091922;22;97653;-35
2024/02/25 09:13:07;;;;;;;0.73;0.40;;;11.20;99.90;;;11.49;54.35;99825.81;6131635;22;122575;-34
2024/02/25 09:15:36;;;;;;;0.70;0.33;;;11.50;99.90;;;11.47;52.86;99832.97;6175251;22;97407;-37
2024/02/25 09:18:03;;;;;;;0.73;0.43;;;11.60;99.90;;;11.60;53.52;99828.75;6168356;22;97681;-35
2024/02/25 09:20:34;;;;;;;0.50;0.30;;;11.60;99.90;;;11.62;53.18;99837.44;6182319;22;98950;-35
2024/02/25 09:23:07;;;;;;;2.00;0.27;;;11.60;99.90;;;11.75;54.07;99831.50;6190559;22;99492;-35
2024/02/25 09:25:36;;;;;;;0.70;0.47;;;11.70;99.90;;;11.75;53.52;99826.22;6055245;22;103446;-34
2024/02/25 09:28:15;;;;;;;1.80;0.43;;;11.70;99.90;;;11.59;52.32;99837.59;6103727;22;97876;-37
2024/02/25 09:30:40;;;;;;;0.93;0.50;;;11.70;99.90;;;11.69;52.82;99821.25;6077481;22;97554;-38
2024/02/25 09:33:06;;;;;;;0.67;0.30;;;11.70;99.90;;;11.71;53.90;99824.66;6117411;22;114128;-37
2024/02/25 09:35:32;;;;;;;0.87;0.40;;;11.60;99.90;;;11.81;53.89;99815.34;6140679;22;119409;-35
2024/02/25 09:38:00;;;;;;;1.37;0.50;;;11.70;99.90;;;11.78;53.51;99823.41;6048734;22;104067;-38
2024/02/25 09:40:26;;;;;;;0.70;0.50;;;11.70;99.90;;;11.69;51.53;99816.81;6115322;22;105275;-38
2024/02/25 09:43:18;;;;;;;0.60;0.33;;;11.70;99.90;;;11.79;53.63;99822.50;5989005;22;123716;-38
2024/02/25 09:46:14;;;;;;;0.70;0.27;;;11.80;99.90;;;11.83;53.59;99808.19;5941804;22;101462;-38
2024/02/25 09:48:54;;;;;;;1.10;0.40;;;11.80;99.90;;;11.80;51.50;99808.38;6057662;22;99730;-35
2024/02/25 09:51:23;;;;;;;0.87;0.30;;;11.90;99.90;;;11.87;52.60;99809.75;5971621;22;101227;-38
2024/02/25 09:53:54;;;;;;;1.57;0.40;;;11.90;99.90;;;12.02;52.51;99802.78;6044773;22;100236;-41
2024/02/25 09:56:28;;;;;;;6.40;0.50;;;12.00;99.90;;;12.02;51.24;99808.91;5966639;22;99202;-46
2024/02/25 09:59:05;;;;;;;1.07;0.47;;;12.10;99.90;;;12.01;51.32;99807.22;5998261;22;98225;-38
2024/02/25 10:01:32;;;;;;;0.60;0.30;;;12.10;99.90;;;12.03;51.01;99799.19;5965192;22;100157;-37
2024/02/25 10:04:03;;;;;;;2.13;0.30;;;12.10;99.90;;;11.99;49.84;99801.13;5975283;22;98347;-37
2024/02/25 10:06:38;;;;;;;0.10;0.10;;;12.10;99.90;;;12.05;50.40;99803.47;5948602;22;104381;-38
2024/02/25 10:09:04;;;;;;;0.37;0.23;;;12.20;99.90;;;12.11;51.77;99808.38;5910788;22;101384;-44
2024/02/25 10:11:46;;;;;;;1.50;0.20;;;12.30;99.90;;;12.14;48.46;99808.22;5903741;22;106130;-41
2024/02/25 10:14:19;;;;;;;0.13;0.03;;;12.30;99.90;;;12.26;48.86;99798.75;5942064;22;99256;-37
2024/02/25 10:17:10;;;;;;;0.33;0.10;;;12.40;99.90;;;12.29;49.32;99801.22;5891658;22;102084;-35
2024/02/25 10:20:06;;;;;;;0.93;0.13;;;12.40;99.90;;;12.38;49.19;99795.41;5967662;22;98487;-40